createdAt,value
2018-09-10T00:00:20.363Z,16.53
2018-09-10T00:01:20.622Z,16.65
2018-09-10T00:02:20.358Z,16.57
2018-09-10T00:03:20.363Z,16.54
2018-09-10T00:04:20.104Z,16.54
2018-09-10T00:05:20.361Z,16.42
2018-09-10T00:06:20.624Z,16.46
2018-09-10T00:07:20.363Z,16.51
2018-09-10T00:08:20.098Z,16.51
2018-09-10T00:09:20.359Z,16.46
2018-09-10T00:10:20.099Z,16.43
2018-09-10T00:11:20.355Z,16.46
2018-09-10T00:12:20.089Z,16.42
2018-09-10T00:13:20.110Z,16.31
2018-09-10T00:14:20.630Z,16.33
2018-09-10T00:15:20.358Z,16.35
2018-09-10T00:16:20.352Z,16.26
2018-09-10T00:17:20.347Z,16.16
2018-09-10T00:18:20.341Z,16.04
2018-09-10T00:19:20.346Z,16.02
2018-09-10T00:20:20.595Z,16
2018-09-10T00:21:20.347Z,15.97
2018-09-10T00:22:20.596Z,15.95
2018-09-10T00:23:20.605Z,15.91
2018-09-10T00:24:20.607Z,15.92
2018-09-10T00:25:20.596Z,15.94
2018-09-10T00:26:20.603Z,15.86
2018-09-10T00:27:20.095Z,15.79
2018-09-10T00:28:20.356Z,15.72
2018-09-10T00:29:20.335Z,15.72
2018-09-10T00:30:20.326Z,15.62
2018-09-10T00:31:20.349Z,15.62
2018-09-10T00:32:20.336Z,15.65
2018-09-10T00:33:20.581Z,15.61
2018-09-10T00:34:20.327Z,15.68
2018-09-10T00:35:20.330Z,15.64
2018-09-10T00:36:20.324Z,15.62
2018-09-10T00:37:20.080Z,15.55
2018-09-10T00:38:20.582Z,15.57
2018-09-10T00:39:20.331Z,15.58
2018-09-10T00:40:20.590Z,15.57
2018-09-10T00:41:20.331Z,15.57
2018-09-10T00:42:20.325Z,15.58
2018-09-10T00:43:20.588Z,15.52
2018-09-10T00:44:20.572Z,15.64
2018-09-10T00:45:20.571Z,15.62
2018-09-10T00:46:20.054Z,15.7
2018-09-10T00:47:20.579Z,15.64
2018-09-10T00:48:20.307Z,15.77
2018-09-10T00:49:20.575Z,15.62
2018-09-10T00:50:20.045Z,15.76
2018-09-10T00:51:20.044Z,15.73
2018-09-10T00:52:20.316Z,15.7
2018-09-10T00:53:20.302Z,15.75
2018-09-10T00:54:20.308Z,15.73
2018-09-10T00:55:20.296Z,15.7
2018-09-10T00:56:20.058Z,15.8
2018-09-10T00:57:20.551Z,15.76
2018-09-10T00:58:20.296Z,15.75
2018-09-10T00:59:20.559Z,15.73
2018-09-10T01:00:20.290Z,15.61
2018-09-10T01:01:20.546Z,15.62
2018-09-10T01:02:20.033Z,15.62
2018-09-10T01:03:20.561Z,15.59
2018-09-10T01:04:20.289Z,15.61
2018-09-10T01:05:20.543Z,15.54
2018-09-10T01:06:20.543Z,15.57
2018-09-10T01:07:20.546Z,15.57
2018-09-10T01:08:20.292Z,15.65
2018-09-10T01:09:20.025Z,15.64
2018-09-10T01:10:20.545Z,15.67
2018-09-10T01:11:20.532Z,15.64
2018-09-10T01:12:20.274Z,15.65
2018-09-10T01:13:20.312Z,15.58
2018-09-10T01:14:20.530Z,15.62
2018-09-10T01:15:20.263Z,15.65
2018-09-10T01:16:20.277Z,15.65
2018-09-10T01:17:20.277Z,15.68
2018-09-10T01:18:20.535Z,15.64
2018-09-10T01:19:20.533Z,15.61
2018-09-10T01:20:20.285Z,15.54
2018-09-10T01:21:20.530Z,15.57
2018-09-10T01:22:20.526Z,15.58
2018-09-10T01:23:20.511Z,15.61
2018-09-10T01:24:20.274Z,15.59
2018-09-10T01:25:20.524Z,15.55
2018-09-10T01:26:20.263Z,15.49
2018-09-10T01:27:19.990Z,15.49
2018-09-10T01:28:20.250Z,15.42
2018-09-10T01:29:20.519Z,15.44
2018-09-10T01:30:20.248Z,15.39
2018-09-10T01:31:20.264Z,15.46
2018-09-10T01:32:20.259Z,15.52
2018-09-10T01:33:20.247Z,15.42
2018-09-10T01:34:20.249Z,15.42
2018-09-10T01:35:20.241Z,15.39
2018-09-10T01:36:20.511Z,15.39
2018-09-10T01:37:20.243Z,15.24
2018-09-10T01:38:19.976Z,15.28
2018-09-10T01:39:20.227Z,15.35
2018-09-10T01:40:20.488Z,15.35
2018-09-10T01:41:20.222Z,15.36
2018-09-10T01:42:20.247Z,15.33
2018-09-10T01:43:20.233Z,15.33
2018-09-10T01:44:20.239Z,15.4
2018-09-10T01:45:20.231Z,15.39
2018-09-10T01:46:20.227Z,15.52
2018-09-10T01:47:20.248Z,15.42
2018-09-10T01:48:20.467Z,15.39
2018-09-10T01:49:20.227Z,15.46
2018-09-10T01:50:19.957Z,15.35
2018-09-10T01:51:20.211Z,15.25
2018-09-10T01:52:20.248Z,15.28
2018-09-10T01:53:20.538Z,15.27
2018-09-10T01:54:20.466Z,15.37
2018-09-10T01:55:20.204Z,15.27
2018-09-10T01:56:20.458Z,15.19
2018-09-10T01:57:20.226Z,15.18
2018-09-10T01:58:20.215Z,15.19
2018-09-10T01:59:19.977Z,15.14
2018-09-10T02:00:20.455Z,15.1
2018-09-10T02:01:20.191Z,15.04
2018-09-10T02:02:20.199Z,15.03
2018-09-10T02:03:20.454Z,15.02
2018-09-10T02:04:20.214Z,15.04
2018-09-10T02:05:19.938Z,15.11
2018-09-10T02:06:20.193Z,15.18
2018-09-10T02:07:19.951Z,15.06
2018-09-10T02:08:20.435Z,15.14
2018-09-10T02:09:20.450Z,15.03
2018-09-10T02:10:20.442Z,15
2018-09-10T02:11:20.427Z,15
2018-09-10T02:12:20.187Z,14.91
2018-09-10T02:13:20.184Z,14.91
2018-09-10T02:14:20.450Z,14.77
2018-09-10T02:15:20.179Z,14.73
2018-09-10T02:16:20.164Z,14.73
2018-09-10T02:17:20.314Z,14.69
2018-09-10T02:18:20.425Z,14.62
2018-09-10T02:19:20.180Z,14.58
2018-09-10T02:20:20.320Z,14.58
2018-09-10T02:21:20.160Z,14.59
2018-09-10T02:22:19.905Z,14.6
2018-09-10T02:23:20.432Z,14.63
2018-09-10T02:24:20.196Z,14.66
2018-09-10T02:25:20.396Z,14.82
2018-09-10T02:26:20.421Z,14.84
2018-09-10T02:27:20.208Z,14.85
2018-09-10T02:28:20.143Z,14.73
2018-09-10T02:29:20.723Z,14.78
2018-09-10T02:30:20.406Z,14.68
2018-09-10T02:31:20.390Z,14.77
2018-09-10T02:32:20.398Z,14.65
2018-09-10T02:33:20.133Z,14.54
2018-09-10T02:34:20.411Z,14.58
2018-09-10T02:35:20.124Z,14.51
2018-09-10T02:36:20.158Z,14.41
2018-09-10T02:37:20.367Z,14.41
2018-09-10T02:38:20.153Z,14.37
2018-09-10T02:39:20.377Z,14.33
2018-09-10T02:40:20.171Z,14.3
2018-09-10T02:41:20.358Z,14.22
2018-09-10T02:42:20.349Z,14.17
2018-09-10T02:43:20.356Z,14.11
2018-09-10T02:44:20.101Z,14.08
2018-09-10T02:45:20.358Z,14.23
2018-09-10T02:46:20.099Z,14.18
2018-09-10T02:47:20.130Z,14.25
2018-09-10T02:48:20.093Z,14.36
2018-09-10T02:49:20.362Z,14.37
2018-09-10T02:50:20.345Z,14.36
2018-09-10T02:51:19.847Z,14.54
2018-09-10T02:52:20.089Z,14.44
2018-09-10T02:53:20.082Z,14.4
2018-09-10T02:54:20.076Z,14.25
2018-09-10T02:55:20.198Z,14.26
2018-09-10T02:56:20.331Z,14.1
2018-09-10T02:57:20.329Z,14.08
2018-09-10T02:58:20.313Z,13.95
2018-09-10T02:59:20.337Z,13.95
2018-09-10T03:00:20.333Z,13.86
2018-09-10T03:01:20.313Z,13.85
2018-09-10T03:02:20.067Z,13.83
2018-09-10T03:03:20.048Z,13.83
2018-09-10T03:04:20.304Z,13.79
2018-09-10T03:05:20.297Z,13.83
2018-09-10T03:06:20.306Z,13.74
2018-09-10T03:07:20.314Z,13.72
2018-09-10T03:08:20.032Z,13.68
2018-09-10T03:09:20.295Z,13.65
2018-09-10T03:10:19.766Z,13.65
2018-09-10T03:11:20.023Z,13.72
2018-09-10T03:12:20.285Z,13.72
2018-09-10T03:13:20.270Z,13.75
2018-09-10T03:14:19.761Z,13.74
2018-09-10T03:15:19.761Z,13.72
2018-09-10T03:16:20.041Z,13.78
2018-09-10T03:17:20.004Z,13.79
2018-09-10T03:18:19.997Z,13.87
2018-09-10T03:19:20.258Z,13.86
2018-09-10T03:20:19.990Z,13.92
2018-09-10T03:21:19.732Z,13.99
2018-09-10T03:22:19.996Z,13.89
2018-09-10T03:23:19.999Z,13.9
2018-09-10T03:24:20.334Z,13.81
2018-09-10T03:25:20.200Z,13.92
2018-09-10T03:26:20.001Z,13.92
2018-09-10T03:27:20.237Z,13.92
2018-09-10T03:28:19.983Z,13.93
2018-09-10T03:29:20.230Z,14.03
2018-09-10T03:30:20.228Z,13.97
2018-09-10T03:31:19.980Z,14
2018-09-10T03:32:20.035Z,14.05
2018-09-10T03:33:19.694Z,14.17
2018-09-10T03:34:19.950Z,14.08
2018-09-10T03:35:19.945Z,14.03
2018-09-10T03:36:19.965Z,13.99
2018-09-10T03:37:19.683Z,13.9
2018-09-10T03:38:19.941Z,13.93
2018-09-10T03:39:20.210Z,13.9
2018-09-10T03:40:20.234Z,13.87
2018-09-10T03:41:20.192Z,13.86
2018-09-10T03:42:19.934Z,13.83
2018-09-10T03:43:20.226Z,13.92
2018-09-10T03:44:19.925Z,13.86
2018-09-10T03:45:20.192Z,13.89
2018-09-10T03:46:19.932Z,13.75
2018-09-10T03:47:21.099Z,13.89
2018-09-10T03:48:20.203Z,14
2018-09-10T03:49:19.903Z,13.97
2018-09-10T03:50:20.165Z,13.92
2018-09-10T03:51:19.901Z,13.92
2018-09-10T03:52:19.916Z,13.79
2018-09-10T03:53:19.917Z,13.86
2018-09-10T03:54:19.656Z,13.83
2018-09-10T03:55:20.153Z,13.85
2018-09-10T03:56:19.619Z,13.81
2018-09-10T03:57:20.139Z,13.7
2018-09-10T03:58:19.874Z,13.72
2018-09-10T03:59:19.614Z,13.68
2018-09-10T04:00:20.212Z,13.74
2018-09-10T04:01:20.110Z,13.79
2018-09-10T04:02:20.125Z,13.95
2018-09-10T04:03:19.855Z,13.97
2018-09-10T04:04:19.604Z,13.93
2018-09-10T04:05:20.116Z,13.96
2018-09-10T04:06:20.094Z,14.03
2018-09-10T04:07:20.104Z,13.99
2018-09-10T04:08:20.090Z,13.92
2018-09-10T04:09:19.597Z,13.95
2018-09-10T04:10:20.192Z,13.9
2018-09-10T04:11:19.825Z,13.95
2018-09-10T04:12:19.830Z,13.93
2018-09-10T04:13:19.819Z,13.93
2018-09-10T04:14:19.844Z,13.96
2018-09-10T04:15:19.815Z,13.95
2018-09-10T04:16:19.819Z,13.99
2018-09-10T04:17:21.427Z,14.04
2018-09-10T04:18:20.065Z,14.04
2018-09-10T04:19:19.824Z,13.97
2018-09-10T04:20:19.549Z,13.95
2018-09-10T04:21:20.079Z,13.96
2018-09-10T04:22:20.049Z,14
2018-09-10T04:23:20.067Z,13.89
2018-09-10T04:24:19.801Z,13.95
2018-09-10T04:25:20.040Z,13.77
2018-09-10T04:26:20.058Z,13.83
2018-09-10T04:27:19.785Z,13.93
2018-09-10T04:28:20.030Z,13.87
2018-09-10T04:29:19.768Z,13.9
2018-09-10T04:30:19.520Z,13.79
2018-09-10T04:31:19.767Z,13.78
2018-09-10T04:32:19.767Z,13.78
2018-09-10T04:33:20.093Z,13.86
2018-09-10T04:34:20.015Z,13.81
2018-09-10T04:35:20.011Z,13.86
2018-09-10T04:36:20.137Z,13.83
2018-09-10T04:37:20.012Z,13.87
2018-09-10T04:38:19.749Z,13.87
2018-09-10T04:39:19.527Z,13.85
2018-09-10T04:40:20.253Z,13.93
2018-09-10T04:41:19.991Z,13.93
2018-09-10T04:42:19.901Z,13.96
2018-09-10T04:43:19.474Z,13.93
2018-09-10T04:44:19.472Z,13.97
2018-09-10T04:45:19.981Z,14.08
2018-09-10T04:46:19.718Z,14.08
2018-09-10T04:47:19.987Z,14.11
2018-09-10T04:48:19.974Z,14.07
2018-09-10T04:49:19.711Z,14.1
2018-09-10T04:50:19.981Z,14.11
2018-09-10T04:51:19.442Z,14.08
2018-09-10T04:52:19.966Z,14.1
2018-09-10T04:53:19.435Z,14.14
2018-09-10T04:54:19.944Z,14.1
2018-09-10T04:55:19.766Z,14.1
2018-09-10T04:56:19.951Z,14.05
2018-09-10T04:57:19.681Z,13.97
2018-09-10T04:58:19.909Z,13.95
2018-09-10T04:59:19.681Z,14
2018-09-10T05:00:19.808Z,13.99
2018-09-10T05:01:19.416Z,13.93
2018-09-10T05:02:19.925Z,13.9
2018-09-10T05:03:19.402Z,13.83
2018-09-10T05:04:19.407Z,13.87
2018-09-10T05:05:19.851Z,13.79
2018-09-10T05:06:19.665Z,13.96
2018-09-10T05:07:19.651Z,13.9
2018-09-10T05:08:19.639Z,13.9
2018-09-10T05:09:19.661Z,13.89
2018-09-10T05:10:20.060Z,13.93
2018-09-10T05:11:19.379Z,13.92
2018-09-10T05:12:19.648Z,13.93
2018-09-10T05:13:19.627Z,13.95
2018-09-10T05:14:19.884Z,13.92
2018-09-10T05:15:19.362Z,13.97
2018-09-10T05:16:19.616Z,13.87
2018-09-10T05:17:19.610Z,13.78
2018-09-10T05:18:21.459Z,13.86
2018-09-10T05:19:19.863Z,13.81
2018-09-10T05:20:19.597Z,13.79
2018-09-10T05:21:19.893Z,13.87
2018-09-10T05:22:19.862Z,14
2018-09-10T05:23:19.888Z,14.2
2018-09-10T05:24:19.342Z,14.6
2018-09-10T05:25:19.621Z,14.73
2018-09-10T05:26:19.850Z,14.94
2018-09-10T05:27:19.851Z,15.22
2018-09-10T05:28:20.396Z,15.36
2018-09-10T05:29:19.569Z,15.52
2018-09-10T05:30:19.833Z,15.57
2018-09-10T05:31:19.318Z,15.44
2018-09-10T05:32:19.622Z,15.46
2018-09-10T05:33:19.816Z,15.51
2018-09-10T05:34:19.815Z,15.42
2018-09-10T05:35:19.814Z,15.28
2018-09-10T05:36:19.828Z,15.04
2018-09-10T05:37:19.589Z,15
2018-09-10T05:38:19.548Z,14.91
2018-09-10T05:39:19.549Z,14.89
2018-09-10T05:40:19.577Z,14.85
2018-09-10T05:41:19.567Z,14.92
2018-09-10T05:42:19.554Z,14.91
2018-09-10T05:43:19.801Z,14.85
2018-09-10T05:44:19.543Z,14.86
2018-09-10T05:45:19.544Z,14.73
2018-09-10T05:46:19.799Z,14.78
2018-09-10T05:47:19.565Z,14.89
2018-09-10T05:48:19.268Z,14.86
2018-09-10T05:49:19.532Z,14.88
2018-09-10T05:50:19.530Z,15
2018-09-10T05:51:19.784Z,14.97
2018-09-10T05:52:19.767Z,14.81
2018-09-10T05:53:20.090Z,14.69
2018-09-10T05:54:19.783Z,14.82
2018-09-10T05:55:19.519Z,14.79
2018-09-10T05:56:19.798Z,14.65
2018-09-10T05:57:19.761Z,14.65
2018-09-10T05:58:19.758Z,14.69
2018-09-10T05:59:19.532Z,14.62
2018-09-10T06:00:19.768Z,14.73
2018-09-10T06:01:19.773Z,14.88
2018-09-10T06:02:19.493Z,14.82
2018-09-10T06:03:19.737Z,14.84
2018-09-10T06:04:19.745Z,14.94
2018-09-10T06:05:19.505Z,14.94
2018-09-10T06:06:19.490Z,15
2018-09-10T06:07:19.240Z,14.91
2018-09-10T06:08:19.733Z,14.85
2018-09-10T06:09:19.469Z,15.02
2018-09-10T06:10:19.483Z,14.91
2018-09-10T06:11:19.464Z,14.88
2018-09-10T06:12:19.463Z,14.91
2018-09-10T06:13:19.714Z,14.91
2018-09-10T06:14:19.460Z,14.97
2018-09-10T06:15:19.460Z,15
2018-09-10T06:16:19.201Z,14.94
2018-09-10T06:17:19.716Z,14.92
2018-09-10T06:18:20.526Z,14.97
2018-09-10T06:19:19.193Z,14.92
2018-09-10T06:20:19.443Z,15.04
2018-09-10T06:21:19.723Z,15.11
2018-09-10T06:22:19.689Z,15.06
2018-09-10T06:23:19.462Z,15.17
2018-09-10T06:24:19.205Z,15.14
2018-09-10T06:25:19.699Z,15.21
2018-09-10T06:26:19.420Z,15.35
2018-09-10T06:27:19.424Z,15.25
2018-09-10T06:28:19.415Z,15.57
2018-09-10T06:29:19.435Z,15.65
2018-09-10T06:30:19.573Z,15.84
2018-09-10T06:31:19.669Z,16.05
2018-09-10T06:32:19.421Z,16.2
2018-09-10T06:33:19.412Z,16.26
2018-09-10T06:34:20.028Z,16.29
2018-09-10T06:35:19.663Z,16.2
2018-09-10T06:36:19.403Z,16.05
2018-09-10T06:37:19.629Z,16.04
2018-09-10T06:38:19.648Z,15.98
2018-09-10T06:39:19.683Z,15.94
2018-09-10T06:40:19.392Z,16.08
2018-09-10T06:41:19.657Z,16.51
2018-09-10T06:42:19.648Z,16.97
2018-09-10T06:43:19.645Z,17.63
2018-09-10T06:44:19.389Z,18.16
2018-09-10T06:45:19.652Z,18.56
2018-09-10T06:46:19.390Z,19.12
2018-09-10T06:47:19.139Z,19.3
2018-09-10T06:48:19.405Z,19.44
2018-09-10T06:49:19.404Z,19.59
2018-09-10T06:50:19.650Z,19.62
2018-09-10T06:51:19.390Z,19.88
2018-09-10T06:52:19.665Z,20.19
2018-09-10T06:53:19.689Z,20.43
2018-09-10T06:54:19.654Z,20.51
2018-09-10T06:55:19.146Z,20.74
2018-09-10T06:56:19.645Z,20.93
2018-09-10T06:57:19.661Z,21.25
2018-09-10T06:58:19.668Z,21.37
2018-09-10T06:59:19.406Z,21.43
2018-09-10T07:00:19.543Z,21.21
2018-09-10T07:01:19.154Z,21.33
2018-09-10T07:02:19.453Z,21.4
2018-09-10T07:03:19.423Z,21.24
2018-09-10T07:04:19.429Z,21.02
2018-09-10T07:05:19.434Z,20.92
2018-09-10T07:06:19.743Z,20.77
2018-09-10T07:07:19.191Z,20.81
2018-09-10T07:08:19.177Z,20.55
2018-09-10T07:09:19.183Z,20.4
2018-09-10T07:10:19.185Z,20.28
2018-09-10T07:11:19.438Z,20.21
2018-09-10T07:12:19.694Z,20.36
2018-09-10T07:13:19.560Z,20.22
2018-09-10T07:14:19.709Z,20.07
2018-09-10T07:15:19.728Z,20.13
2018-09-10T07:16:19.720Z,20.44
2018-09-10T07:17:19.461Z,20.88
2018-09-10T07:18:19.726Z,21.35
2018-09-10T07:19:19.745Z,21.76
2018-09-10T07:20:19.475Z,22.26
2018-09-10T07:21:19.719Z,22.7
2018-09-10T07:22:19.532Z,23.1
2018-09-10T07:23:19.729Z,23.44
2018-09-10T07:24:19.230Z,23.66
2018-09-10T07:25:19.742Z,23.65
2018-09-10T07:26:19.485Z,23.76
2018-09-10T07:27:19.757Z,23.96
2018-09-10T07:28:19.772Z,23.95
2018-09-10T07:29:19.505Z,23.92
2018-09-10T07:30:19.781Z,23.96
2018-09-10T07:31:19.525Z,24.11
2018-09-10T07:32:19.523Z,24.16
2018-09-10T07:33:19.773Z,24.32
2018-09-10T07:34:21.414Z,24.5
2018-09-10T07:35:19.795Z,24.7
2018-09-10T07:36:19.791Z,24.85
2018-09-10T07:37:19.298Z,24.96
2018-09-10T07:38:19.553Z,24.98
2018-09-10T07:39:19.577Z,24.95
2018-09-10T07:40:19.565Z,24.88
2018-09-10T07:41:19.356Z,24.81
2018-09-10T07:42:19.839Z,24.8
2018-09-10T07:43:19.600Z,24.76
2018-09-10T07:44:19.770Z,24.88
2018-09-10T07:45:19.591Z,24.84
2018-09-10T07:46:19.603Z,25.07
2018-09-10T07:47:19.638Z,25.32
2018-09-10T07:48:19.592Z,25.47
2018-09-10T07:49:20.109Z,25.77
2018-09-10T07:50:19.642Z,25.84
2018-09-10T07:51:19.368Z,25.68
2018-09-10T07:52:19.653Z,25.65
2018-09-10T07:53:19.877Z,25.54
2018-09-10T07:54:19.645Z,25.65
2018-09-10T07:55:19.886Z,25.9
2018-09-10T07:56:19.909Z,26.05
2018-09-10T07:57:19.903Z,26.33
2018-09-10T07:58:19.393Z,26.33
2018-09-10T07:59:19.908Z,26.26
2018-09-10T08:00:19.405Z,26.25
2018-09-10T08:01:19.923Z,26.45
2018-09-10T08:02:19.681Z,26.71
2018-09-10T08:03:19.941Z,26.83
2018-09-10T08:04:19.690Z,26.74
2018-09-10T08:05:19.688Z,26.6
2018-09-10T08:06:19.697Z,26.74
2018-09-10T08:07:19.444Z,26.8
2018-09-10T08:08:19.994Z,26.74
2018-09-10T08:09:20.001Z,26.84
2018-09-10T08:10:19.720Z,26.99
2018-09-10T08:11:19.733Z,26.8
2018-09-10T08:12:19.477Z,27.08
2018-09-10T08:13:19.989Z,26.96
2018-09-10T08:14:20.002Z,27.11
2018-09-10T08:15:19.772Z,27.05
2018-09-10T08:16:19.753Z,26.95
2018-09-10T08:17:19.502Z,26.8
2018-09-10T08:18:19.788Z,26.83
2018-09-10T08:19:19.790Z,27
2018-09-10T08:20:20.045Z,27.11
2018-09-10T08:21:20.061Z,27.14
2018-09-10T08:22:19.527Z,26.97
2018-09-10T08:23:19.810Z,26.58
2018-09-10T08:24:20.496Z,25.98
2018-09-10T08:25:20.327Z,25.5
2018-09-10T08:26:20.076Z,25.04
2018-09-10T08:27:20.074Z,24.65
2018-09-10T08:28:19.856Z,24.11
2018-09-10T08:29:19.585Z,23.69
2018-09-10T08:30:20.203Z,23.46
2018-09-10T08:31:20.101Z,23.12
2018-09-10T08:32:19.618Z,22.84
2018-09-10T08:33:19.596Z,22.68
2018-09-10T08:34:19.612Z,22.57
2018-09-10T08:35:19.864Z,22.53
2018-09-10T08:36:20.154Z,22.5
2018-09-10T08:37:19.870Z,22.57
2018-09-10T08:38:20.145Z,22.59
2018-09-10T08:39:19.650Z,22.59
2018-09-10T08:40:19.911Z,22.59
2018-09-10T08:41:20.146Z,22.62
2018-09-10T08:42:19.901Z,22.65
2018-09-10T08:43:20.161Z,22.66
2018-09-10T08:44:20.176Z,22.69
2018-09-10T08:45:20.186Z,22.81
2018-09-10T08:46:20.237Z,22.84
2018-09-10T08:47:19.932Z,22.85
2018-09-10T08:48:20.345Z,22.84
2018-09-10T08:49:20.181Z,22.84
2018-09-10T08:50:20.492Z,22.88
2018-09-10T08:51:20.196Z,22.85
2018-09-10T08:52:20.192Z,22.91
2018-09-10T08:53:20.208Z,22.98
2018-09-10T08:54:20.928Z,23.13
2018-09-10T08:55:20.590Z,23.27
2018-09-10T08:56:21.345Z,23.31
2018-09-10T08:57:20.215Z,23.44
2018-09-10T08:58:19.962Z,23.47
2018-09-10T08:59:19.706Z,23.51
2018-09-10T09:00:20.537Z,23.55
2018-09-10T09:01:20.235Z,23.51
2018-09-10T09:02:19.727Z,23.55
2018-09-10T09:03:20.241Z,23.55
2018-09-10T09:04:19.990Z,23.5
2018-09-10T09:05:19.743Z,23.41
2018-09-10T09:06:20.327Z,23.4
2018-09-10T09:07:20.256Z,23.5
2018-09-10T09:08:19.995Z,23.56
2018-09-10T09:09:20.274Z,23.56
2018-09-10T09:10:20.006Z,23.59
2018-09-10T09:11:20.260Z,23.54
2018-09-10T09:12:20.266Z,23.63
2018-09-10T09:13:20.273Z,23.62
2018-09-10T09:14:20.014Z,23.62
2018-09-10T09:15:20.019Z,23.71
2018-09-10T09:16:20.289Z,23.71
2018-09-10T09:17:20.063Z,23.73
2018-09-10T09:18:20.038Z,23.76
2018-09-10T09:19:20.036Z,23.8
2018-09-10T09:20:20.182Z,23.81
2018-09-10T09:21:20.298Z,23.74
2018-09-10T09:22:20.041Z,23.76
2018-09-10T09:23:20.762Z,23.91
2018-09-10T09:24:20.043Z,23.93
2018-09-10T09:25:20.309Z,24.05
2018-09-10T09:26:20.068Z,24.18
2018-09-10T09:27:20.060Z,24.33
2018-09-10T09:28:19.822Z,24.36
2018-09-10T09:29:20.081Z,24.47
2018-09-10T09:30:20.275Z,24.43
2018-09-10T09:31:20.068Z,24.4
2018-09-10T09:32:20.094Z,24.47
2018-09-10T09:33:19.842Z,24.55
2018-09-10T09:34:20.095Z,24.61
2018-09-10T09:35:20.100Z,24.65
2018-09-10T09:36:20.321Z,24.78
2018-09-10T09:37:20.113Z,24.76
2018-09-10T09:38:20.189Z,24.8
2018-09-10T09:39:20.173Z,24.8
2018-09-10T09:40:20.114Z,24.88
2018-09-10T09:41:20.361Z,24.95
2018-09-10T09:42:20.373Z,24.99
2018-09-10T09:43:20.165Z,24.96
2018-09-10T09:44:20.382Z,25.08
2018-09-10T09:45:20.141Z,25.07
2018-09-10T09:46:20.164Z,25.11
2018-09-10T09:47:20.394Z,25.13
2018-09-10T09:48:20.393Z,25.17
2018-09-10T09:49:20.143Z,25.23
2018-09-10T09:50:21.264Z,25.32
2018-09-10T09:51:20.714Z,25.31
2018-09-10T09:52:20.174Z,25.38
2018-09-10T09:53:20.163Z,25.46
2018-09-10T09:54:20.431Z,25.53
2018-09-10T09:55:20.426Z,25.63
2018-09-10T09:56:20.164Z,25.7
2018-09-10T09:57:20.169Z,25.75
2018-09-10T09:58:20.432Z,25.93
2018-09-10T09:59:20.180Z,25.9
2018-09-10T10:00:20.901Z,25.95
2018-09-10T10:01:20.448Z,26.06
2018-09-10T10:02:20.201Z,26.15
2018-09-10T10:03:20.456Z,26.18
2018-09-10T10:04:20.470Z,26.18
2018-09-10T10:05:20.481Z,26.19
2018-09-10T10:06:20.212Z,26.21
2018-09-10T10:07:20.227Z,26.07
2018-09-10T10:08:19.975Z,26.05
2018-09-10T10:09:20.239Z,26.06
2018-09-10T10:10:21.631Z,26.02
2018-09-10T10:11:20.862Z,26.22
2018-09-10T10:12:21.146Z,26.25
2018-09-10T10:13:19.986Z,26.31
2018-09-10T10:14:20.247Z,26.36
2018-09-10T10:15:19.997Z,26.34
2018-09-10T10:16:20.701Z,26.38
2018-09-10T10:17:20.544Z,26.36
2018-09-10T10:18:20.006Z,26.38
2018-09-10T10:19:20.283Z,26.45
2018-09-10T10:20:20.394Z,26.45
2018-09-10T10:21:20.278Z,26.52
2018-09-10T10:22:20.326Z,26.59
2018-09-10T10:23:20.047Z,26.55
2018-09-10T10:24:20.305Z,26.66
2018-09-10T10:25:20.574Z,26.78
2018-09-10T10:26:20.300Z,26.78
2018-09-10T10:27:20.313Z,26.89
2018-09-10T10:28:20.466Z,26.85
2018-09-10T10:29:20.580Z,26.92
2018-09-10T10:30:20.677Z,26.93
2018-09-10T10:31:20.592Z,26.99
2018-09-10T10:32:20.597Z,26.96
2018-09-10T10:33:20.601Z,26.96
2018-09-10T10:34:20.380Z,27.08
2018-09-10T10:35:20.368Z,26.96
2018-09-10T10:36:20.351Z,27.07
2018-09-10T10:37:20.102Z,27.08
2018-09-10T10:38:20.624Z,27.02
2018-09-10T10:39:20.917Z,27.1
2018-09-10T10:40:20.379Z,26.99
2018-09-10T10:41:20.396Z,26.99
2018-09-10T10:42:20.385Z,27
2018-09-10T10:43:20.652Z,27.11
2018-09-10T10:44:20.171Z,27.2
2018-09-10T10:45:20.661Z,27.18
2018-09-10T10:46:20.408Z,27.25
2018-09-10T10:47:20.486Z,27.29
2018-09-10T10:48:20.155Z,27.3
2018-09-10T10:49:20.686Z,27.35
2018-09-10T10:50:20.493Z,27.29
2018-09-10T10:51:20.711Z,27.32
2018-09-10T10:52:20.438Z,27.35
2018-09-10T10:53:20.771Z,27.37
2018-09-10T10:54:20.711Z,27.35
2018-09-10T10:55:20.714Z,27.4
2018-09-10T10:56:20.458Z,27.39
2018-09-10T10:57:20.455Z,27.4
2018-09-10T10:58:20.749Z,27.33
2018-09-10T10:59:20.762Z,27.32
2018-09-10T11:00:20.732Z,27.29
2018-09-10T11:01:20.728Z,27.14
2018-09-10T11:02:20.741Z,27.17
2018-09-10T11:03:20.738Z,27.1
2018-09-10T11:04:20.606Z,27.05
2018-09-10T11:05:20.771Z,27.07
2018-09-10T11:06:20.244Z,27.08
2018-09-10T11:07:20.772Z,27.15
2018-09-10T11:08:20.531Z,27.2
2018-09-10T11:09:20.518Z,27.33
2018-09-10T11:10:20.781Z,27.3
2018-09-10T11:11:20.783Z,27.29
2018-09-10T11:12:20.786Z,27.4
2018-09-10T11:13:20.569Z,27.51
2018-09-10T11:14:20.558Z,27.6
2018-09-10T11:15:20.550Z,27.74
2018-09-10T11:16:20.810Z,27.64
2018-09-10T11:17:20.817Z,27.7
2018-09-10T11:18:20.821Z,27.71
2018-09-10T11:19:20.838Z,27.73
2018-09-10T11:20:20.347Z,27.83
2018-09-10T11:21:20.854Z,27.85
2018-09-10T11:22:20.946Z,27.9
2018-09-10T11:23:20.608Z,28
2018-09-10T11:24:20.595Z,28.05
2018-09-10T11:25:20.640Z,28.02
2018-09-10T11:26:20.603Z,28.07
2018-09-10T11:27:20.355Z,28.11
2018-09-10T11:28:20.622Z,28.22
2018-09-10T11:29:20.654Z,28.25
2018-09-10T11:30:20.886Z,28.2
2018-09-10T11:31:20.369Z,28.3
2018-09-10T11:32:20.879Z,28.37
2018-09-10T11:33:20.875Z,28.38
2018-09-10T11:34:20.899Z,28.42
2018-09-10T11:35:20.644Z,28.45
2018-09-10T11:36:20.392Z,28.49
2018-09-10T11:37:20.656Z,28.57
2018-09-10T11:38:20.661Z,28.62
2018-09-10T11:39:20.712Z,28.7
2018-09-10T11:40:20.922Z,28.76
2018-09-10T11:41:20.681Z,28.75
2018-09-10T11:42:20.940Z,28.7
2018-09-10T11:43:20.939Z,28.69
2018-09-10T11:44:20.947Z,28.74
2018-09-10T11:45:20.963Z,28.79
2018-09-10T11:46:20.718Z,28.84
2018-09-10T11:47:20.967Z,28.78
2018-09-10T11:48:20.976Z,28.78
2018-09-10T11:49:20.977Z,28.78
2018-09-10T11:50:20.983Z,28.79
2018-09-10T11:51:20.990Z,28.81
2018-09-10T11:52:20.818Z,28.82
2018-09-10T11:53:21.002Z,28.89
2018-09-10T11:54:21.013Z,28.96
2018-09-10T11:55:21.005Z,29.05
2018-09-10T11:56:21.026Z,28.98
2018-09-10T11:57:21.021Z,29.04
2018-09-10T11:58:21.029Z,28.98
2018-09-10T11:59:21.038Z,28.89
2018-09-10T12:00:21.030Z,28.89
2018-09-10T12:01:21.055Z,28.86
2018-09-10T12:02:21.047Z,28.85
2018-09-10T12:03:21.066Z,28.93
2018-09-10T12:04:20.816Z,28.94
2018-09-10T12:05:20.828Z,28.97
2018-09-10T12:06:21.058Z,28.96
2018-09-10T12:07:21.075Z,28.93
2018-09-10T12:08:21.214Z,28.89
2018-09-10T12:09:20.834Z,28.78
2018-09-10T12:10:21.107Z,28.75
2018-09-10T12:11:20.668Z,28.44
2018-09-10T12:12:21.136Z,28.42
2018-09-10T12:13:20.858Z,28.26
2018-09-10T12:14:20.895Z,28.32
2018-09-10T12:15:20.872Z,28.37
2018-09-10T12:16:20.873Z,28.41
2018-09-10T12:17:21.148Z,28.44
2018-09-10T12:18:20.871Z,28.56
2018-09-10T12:19:21.154Z,28.38
2018-09-10T12:20:20.880Z,28.42
2018-09-10T12:21:20.900Z,28.42
2018-09-10T12:22:20.907Z,28.37
2018-09-10T12:23:21.171Z,28.45
2018-09-10T12:24:21.182Z,28.56
2018-09-10T12:25:21.157Z,28.69
2018-09-10T12:26:20.913Z,28.88
2018-09-10T12:27:20.913Z,28.97
2018-09-10T12:28:20.673Z,28.98
2018-09-10T12:29:21.212Z,29.05
2018-09-10T12:30:20.950Z,29.01
2018-09-10T12:31:21.210Z,29.01
2018-09-10T12:32:21.337Z,28.97
2018-09-10T12:33:20.954Z,29.1
2018-09-10T12:34:21.244Z,29.12
2018-09-10T12:35:21.246Z,29.08
2018-09-10T12:36:20.988Z,29.08
2018-09-10T12:37:20.987Z,29.04
2018-09-10T12:38:21.239Z,29.13
2018-09-10T12:39:21.385Z,29.12
2018-09-10T12:40:21.261Z,29.24
2018-09-10T12:41:21.260Z,29.23
2018-09-10T12:42:21.000Z,29.26
2018-09-10T12:43:21.264Z,29.2
2018-09-10T12:44:21.284Z,29.24
2018-09-10T12:45:21.292Z,29.22
2018-09-10T12:46:21.043Z,29.24
2018-09-10T12:47:21.061Z,29.31
2018-09-10T12:48:21.031Z,29.34
2018-09-10T12:49:20.808Z,29.32
2018-09-10T12:50:20.783Z,29.39
2018-09-10T12:51:21.314Z,29.45
2018-09-10T12:52:21.317Z,29.53
2018-09-10T12:53:21.058Z,29.5
2018-09-10T12:54:21.099Z,29.36
2018-09-10T12:55:21.080Z,29.27
2018-09-10T12:56:21.363Z,29.17